Time;durP1;ratioP1;P1;durP2;ratioP2;P2;SDS_P1;SDS_P2;PMS_P1;PMS_P2;Temp;Humidity;BMP_temperature;BMP_pressure;BME280_temperature;BME280_humidity;BME280_pressure;Samples;Min_cycle;Max_cycle;Signal;HPM_P1;HPM_P2
2022/12/14 00:01:18;;;;;;;0.90;0.90;;;-4.20;99.90;;;;;;5022039;28;20310;-82
2022/12/14 00:03:44;;;;;;;0.63;0.63;;;-4.20;99.90;;;;;;5024532;28;20188;-82
2022/12/14 00:06:16;;;;;;;0.70;0.70;;;-4.20;99.90;;;;;;5025342;28;20507;-82
2022/12/14 00:08:43;;;;;;;0.77;0.77;;;-4.20;99.90;;;;;;5027006;28;20924;-81
2022/12/14 00:11:09;;;;;;;0.83;0.83;;;-4.10;99.90;;;;;;5027520;28;21092;-82
2022/12/14 00:13:36;;;;;;;0.80;0.80;;;-4.20;99.90;;;;;;5026165;28;20442;-82
2022/12/14 00:16:13;;;;;;;0.80;0.80;;;-4.20;99.90;;;;;;5027948;28;20786;-82
2022/12/14 00:18:39;;;;;;;0.80;0.80;;;-4.20;99.90;;;;;;5019402;28;20697;-82
2022/12/14 00:21:07;;;;;;;0.90;0.90;;;-4.20;99.90;;;;;;5027685;28;20938;-82
2022/12/14 00:23:33;;;;;;;0.50;0.50;;;-4.30;99.90;;;;;;5033595;28;20528;-82
2022/12/14 00:26:05;;;;;;;0.70;0.70;;;-4.30;99.90;;;;;;5031506;28;20481;-82
2022/12/14 00:28:30;;;;;;;0.60;0.60;;;-4.30;99.90;;;;;;5031237;28;20196;-82
2022/12/14 00:30:56;;;;;;;0.60;0.60;;;-4.30;99.90;;;;;;5026769;28;20969;-82
2022/12/14 00:33:22;;;;;;;0.90;0.90;;;-4.30;99.90;;;;;;5015232;28;21893;-82
2022/12/14 00:35:47;;;;;;;0.73;0.73;;;-4.30;99.90;;;;;;5033462;28;20422;-82
2022/12/14 00:38:13;;;;;;;0.80;0.80;;;-4.30;99.90;;;;;;5033108;28;20211;-81
2022/12/14 00:40:38;;;;;;;0.70;0.70;;;-4.30;99.90;;;;;;5022642;28;20184;-82
2022/12/14 00:43:04;;;;;;;0.70;0.70;;;-4.30;99.90;;;;;;5016009;28;20281;-82
2022/12/14 00:45:29;;;;;;;0.77;0.77;;;-4.40;99.90;;;;;;5033080;28;20201;-82
2022/12/14 00:47:55;;;;;;;0.70;0.70;;;-4.40;99.90;;;;;;5028903;28;20188;-82
2022/12/14 00:50:21;;;;;;;0.70;0.70;;;-4.40;99.90;;;;;;5033348;28;20184;-82
2022/12/14 00:52:46;;;;;;;0.90;0.90;;;-4.50;99.90;;;;;;5024103;28;20561;-82
2022/12/14 00:55:12;;;;;;;0.87;0.87;;;-4.50;99.90;;;;;;5028441;28;20235;-82
2022/12/14 00:57:37;;;;;;;0.80;0.80;;;-4.60;99.90;;;;;;5030873;28;20220;-82
2022/12/14 01:00:04;;;;;;;0.80;0.80;;;-4.60;99.90;;;;;;5029078;28;20215;-82
2022/12/14 01:02:29;;;;;;;0.70;0.70;;;-4.60;99.90;;;;;;5021120;28;20514;-82
2022/12/14 01:04:55;;;;;;;0.87;0.87;;;-4.70;99.90;;;;;;5026437;28;20529;-82
2022/12/14 01:07:20;;;;;;;1.00;1.00;;;-4.70;99.90;;;;;;5030208;28;20198;-82
2022/12/14 01:09:46;;;;;;;0.73;0.73;;;-4.70;99.90;;;;;;5029134;28;20314;-82
2022/12/14 01:12:11;;;;;;;0.87;0.87;;;-4.70;99.90;;;;;;5025034;28;20807;-82
2022/12/14 01:14:37;;;;;;;0.87;0.87;;;-4.70;99.90;;;;;;5029979;28;20594;-82
2022/12/14 01:17:02;;;;;;;0.80;0.80;;;-4.70;99.90;;;;;;5027748;28;20190;-82
2022/12/14 01:19:28;;;;;;;0.70;0.70;;;-4.70;99.90;;;;;;5031295;28;20207;-82
2022/12/14 01:21:54;;;;;;;0.90;0.90;;;-4.60;99.90;;;;;;5028662;28;21460;-82
2022/12/14 01:24:19;;;;;;;0.60;0.60;;;-4.60;99.90;;;;;;5028739;28;22290;-82
2022/12/14 01:26:44;;;;;;;0.60;0.60;;;-4.60;99.90;;;;;;5030119;28;20735;-82
2022/12/14 01:29:10;;;;;;;0.63;0.63;;;-4.60;99.90;;;;;;5029627;28;20192;-82
2022/12/14 01:31:37;;;;;;;0.60;0.60;;;-4.60;99.90;;;;;;5027490;28;20188;-82
2022/12/14 01:34:04;;;;;;;0.70;0.70;;;-4.70;99.90;;;;;;5025144;28;20989;-82
2022/12/14 01:36:32;;;;;;;0.73;0.73;;;-4.70;99.90;;;;;;5029888;28;20485;-82
2022/12/14 01:39:00;;;;;;;0.70;0.70;;;-4.70;99.90;;;;;;5030606;28;20509;-82
2022/12/14 01:41:28;;;;;;;0.60;0.60;;;-4.70;99.90;;;;;;5028122;28;20431;-82
2022/12/14 01:43:55;;;;;;;0.80;0.80;;;-4.70;99.90;;;;;;5019253;28;20454;-83
2022/12/14 01:46:26;;;;;;;0.70;0.70;;;-4.70;99.90;;;;;;5028826;28;20466;-82
2022/12/14 01:48:58;;;;;;;0.50;0.50;;;-4.60;99.90;;;;;;5026996;28;20446;-82
2022/12/14 01:51:25;;;;;;;0.70;0.70;;;-4.60;99.90;;;;;;5030048;28;20496;-82
2022/12/14 01:53:52;;;;;;;0.87;0.87;;;-4.60;99.90;;;;;;5029291;28;21005;-82
2022/12/14 01:56:18;;;;;;;0.63;0.63;;;-4.60;99.90;;;;;;5028769;28;20462;-83
2022/12/14 01:58:43;;;;;;;0.80;0.80;;;-4.60;99.90;;;;;;5027261;28;20905;-82
2022/12/14 02:01:10;;;;;;;0.80;0.80;;;-4.60;99.90;;;;;;5029635;28;20274;-83
2022/12/14 02:03:41;;;;;;;0.50;0.50;;;-4.60;99.90;;;;;;5027903;28;20246;-82
2022/12/14 02:06:12;;;;;;;0.60;0.60;;;-4.60;99.90;;;;;;5027214;28;20438;-83
2022/12/14 02:08:40;;;;;;;0.70;0.70;;;-4.70;99.90;;;;;;5030610;28;20434;-82
2022/12/14 02:11:05;;;;;;;0.77;0.77;;;-4.70;99.90;;;;;;5025634;28;20461;-82
2022/12/14 02:13:34;;;;;;;0.67;0.67;;;-4.70;99.90;;;;;;5026170;28;20442;-83
2022/12/14 02:16:00;;;;;;;0.80;0.80;;;-4.70;99.90;;;;;;5026308;28;20222;-82
2022/12/14 02:18:27;;;;;;;0.70;0.70;;;-4.70;99.90;;;;;;5020899;28;20490;-83
2022/12/14 02:21:16;;;;;;;0.80;0.80;;;-4.70;99.90;;;;;;5026202;28;20192;-83
2022/12/14 02:24:04;;;;;;;0.80;0.80;;;-4.70;99.90;;;;;;5036029;28;20446;-83
2022/12/14 02:26:46;;;;;;;0.70;0.70;;;-4.70;99.90;;;;;;5027042;28;20438;-83
2022/12/14 02:29:43;;;;;;;0.50;0.50;;;-4.70;99.90;;;;;;5029229;28;20964;-83
2022/12/14 02:32:36;;;;;;;0.77;0.77;;;-4.70;99.90;;;;;;5024318;28;20524;-83
2022/12/14 02:35:35;;;;;;;0.70;0.70;;;-4.70;99.90;;;;;;5027522;28;20660;-83
2022/12/14 02:38:41;;;;;;;0.87;0.87;;;-4.80;99.90;;;;;;5029421;28;20470;-83
2022/12/14 02:41:37;;;;;;;0.60;0.60;;;-4.70;99.90;;;;;;5029679;28;20593;-83
2022/12/14 02:44:21;;;;;;;0.73;0.73;;;-4.70;99.90;;;;;;5030113;28;20426;-83
2022/12/14 02:47:10;;;;;;;0.60;0.60;;;-4.70;99.90;;;;;;5039640;28;20450;-83
2022/12/14 02:49:48;;;;;;;0.57;0.57;;;-4.70;99.90;;;;;;5029944;28;20508;-83
2022/12/14 02:52:32;;;;;;;0.70;0.70;;;-4.80;99.90;;;;;;5019640;28;20434;-83
2022/12/14 02:55:07;;;;;;;0.60;0.60;;;-4.80;99.90;;;;;;5027580;28;21084;-83
2022/12/14 02:57:42;;;;;;;0.60;0.60;;;-4.80;99.90;;;;;;5028051;28;20473;-83
2022/12/14 03:00:08;;;;;;;0.60;0.60;;;-4.80;99.90;;;;;;5022571;28;20443;-83
2022/12/14 03:02:37;;;;;;;0.77;0.77;;;-4.80;99.90;;;;;;5028197;28;20490;-83
2022/12/14 03:05:03;;;;;;;0.70;0.70;;;-4.80;99.90;;;;;;5025490;28;20997;-83
2022/12/14 03:07:40;;;;;;;0.80;0.80;;;-4.80;99.90;;;;;;5020302;28;20565;-83
2022/12/14 03:10:37;;;;;;;0.70;0.70;;;-4.90;99.90;;;;;;5019042;28;20450;-83
2022/12/14 03:13:11;;;;;;;0.90;0.90;;;-4.90;99.90;;;;;;5026228;28;20497;-83
2022/12/14 03:15:40;;;;;;;0.70;0.70;;;-4.90;99.90;;;;;;5027255;28;20441;-83
2022/12/14 03:18:08;;;;;;;0.80;0.80;;;-4.90;99.90;;;;;;5027267;28;20493;-83
2022/12/14 03:20:35;;;;;;;0.70;0.70;;;-4.90;99.90;;;;;;5027545;28;20943;-83
2022/12/14 03:23:10;;;;;;;1.00;1.00;;;-4.90;99.90;;;;;;5024077;28;20504;-84
2022/12/14 03:25:43;;;;;;;0.73;0.73;;;-5.00;99.90;;;;;;5027277;28;20434;-83
2022/12/14 03:28:19;;;;;;;0.80;0.80;;;-5.00;99.90;;;;;;5024267;28;20469;-83
2022/12/14 03:30:50;;;;;;;0.80;0.80;;;-5.00;99.90;;;;;;5026948;28;20448;-83
2022/12/14 03:33:19;;;;;;;0.70;0.70;;;-5.00;99.90;;;;;;5026037;28;20563;-83
2022/12/14 03:36:02;;;;;;;0.70;0.70;;;-5.00;99.90;;;;;;5028444;28;20533;-83
2022/12/14 03:38:34;;;;;;;0.80;0.80;;;-5.00;99.90;;;;;;5024173;28;20580;-83
2022/12/14 03:41:12;;;;;;;0.80;0.80;;;-5.00;99.90;;;;;;5027658;28;20433;-83
2022/12/14 03:44:03;;;;;;;0.80;0.80;;;-5.00;99.90;;;;;;5025813;28;20495;-83
2022/12/14 03:46:51;;;;;;;0.77;0.77;;;-5.00;99.90;;;;;;5021662;28;20446;-81
2022/12/14 03:49:32;;;;;;;0.87;0.87;;;-5.00;99.90;;;;;;5026794;28;20524;-83
2022/12/14 03:52:10;;;;;;;0.80;0.80;;;-5.10;99.90;;;;;;5026822;28;20474;-83
2022/12/14 03:55:00;;;;;;;0.70;0.70;;;-5.10;99.90;;;;;;5028659;28;20489;-83
2022/12/14 03:57:55;;;;;;;0.70;0.70;;;-5.10;99.90;;;;;;5030132;28;20977;-83
2022/12/14 04:00:23;;;;;;;0.50;0.50;;;-5.10;99.90;;;;;;5029373;28;20450;-83
2022/12/14 04:03:13;;;;;;;0.80;0.80;;;-5.10;99.90;;;;;;5029478;28;21025;-83
2022/12/14 04:05:45;;;;;;;0.90;0.90;;;-5.10;99.90;;;;;;5012318;28;20536;-83
2022/12/14 04:08:21;;;;;;;0.70;0.70;;;-5.10;99.90;;;;;;5030420;28;20453;-83
2022/12/14 04:19:52;;;;;;;0.90;0.90;;;-5.10;99.90;;;;;;5016654;28;20980;-84
2022/12/14 04:22:22;;;;;;;0.80;0.80;;;-5.20;99.90;;;;;;5031599;28;20434;-84
2022/12/14 04:31:07;;;;;;;0.63;0.63;;;-5.20;99.90;;;;;;5020264;28;20436;-84
2022/12/14 04:33:45;;;;;;;0.73;0.73;;;-5.20;99.90;;;;;;5030134;28;20449;-84
2022/12/14 04:36:23;;;;;;;0.90;0.90;;;-5.20;99.90;;;;;;5022544;28;21084;-83
2022/12/14 04:38:57;;;;;;;0.90;0.90;;;-5.20;99.90;;;;;;5030080;28;20485;-84
2022/12/14 04:41:28;;;;;;;0.60;0.60;;;-5.20;99.90;;;;;;5029240;28;20478;-85
2022/12/14 04:43:56;;;;;;;0.60;0.60;;;-5.30;99.90;;;;;;5028175;28;20453;-83
2022/12/14 04:46:27;;;;;;;0.80;0.80;;;-5.20;99.90;;;;;;5020289;28;20469;-83
2022/12/14 04:49:08;;;;;;;0.70;0.70;;;-5.20;99.90;;;;;;5026818;28;20978;-83
2022/12/14 04:51:56;;;;;;;0.70;0.70;;;-5.30;99.90;;;;;;5026864;28;20449;-83
2022/12/14 04:55:03;;;;;;;0.80;0.80;;;-5.30;99.90;;;;;;4988684;28;1052316;-84
2022/12/14 04:57:49;;;;;;;0.97;0.97;;;-5.30;99.90;;;;;;5029893;28;20496;-84
2022/12/14 05:00:15;;;;;;;1.00;1.00;;;-5.30;99.90;;;;;;5026585;28;20442;-83
2022/12/14 05:03:02;;;;;;;0.90;0.90;;;-5.30;99.90;;;;;;5030916;28;20520;-84
2022/12/14 05:05:44;;;;;;;0.87;0.87;;;-5.40;99.90;;;;;;5030733;28;20458;-85
2022/12/14 05:08:19;;;;;;;0.93;0.93;;;-5.50;99.90;;;;;;5027935;28;20438;-83
2022/12/14 05:10:50;;;;;;;0.90;0.90;;;-5.50;99.90;;;;;;5030550;28;20517;-84
2022/12/14 05:13:33;;;;;;;1.03;1.03;;;-5.50;99.90;;;;;;5031817;28;20414;-84
2022/12/14 05:15:58;;;;;;;0.90;0.90;;;-5.50;99.90;;;;;;5029916;28;20450;-84
2022/12/14 05:18:24;;;;;;;1.10;1.10;;;-5.50;99.90;;;;;;5024065;28;20475;-84
2022/12/14 05:20:50;;;;;;;0.90;0.90;;;-5.50;99.90;;;;;;5022339;28;20570;-83
2022/12/14 05:23:16;;;;;;;0.70;0.70;;;-5.50;99.90;;;;;;5031563;28;20968;-84
2022/12/14 05:25:42;;;;;;;0.90;0.90;;;-5.50;99.90;;;;;;5027521;28;20254;-83
2022/12/14 05:28:09;;;;;;;0.70;0.70;;;-5.50;99.90;;;;;;5029288;28;20494;-84
2022/12/14 05:30:35;;;;;;;0.80;0.80;;;-5.50;99.90;;;;;;5029617;28;20225;-84
2022/12/14 05:33:01;;;;;;;0.80;0.80;;;-5.60;99.90;;;;;;5030011;28;20547;-82
2022/12/14 05:35:26;;;;;;;1.10;1.10;;;-5.60;99.90;;;;;;5028983;28;20195;-82
2022/12/14 05:37:52;;;;;;;0.90;0.90;;;-5.70;99.90;;;;;;5031435;28;20211;-82
2022/12/14 05:40:17;;;;;;;1.00;1.00;;;-5.70;99.90;;;;;;5027942;28;20186;-82
2022/12/14 05:42:43;;;;;;;1.00;1.00;;;-5.70;99.90;;;;;;5030395;28;20196;-82
2022/12/14 05:45:11;;;;;;;0.80;0.80;;;-5.70;99.90;;;;;;5028314;28;20223;-82
2022/12/14 05:47:37;;;;;;;0.67;0.67;;;-5.70;99.90;;;;;;5037161;28;20474;-82
2022/12/14 05:50:03;;;;;;;0.57;0.57;;;-5.70;99.90;;;;;;5028251;28;20568;-82
2022/12/14 05:52:28;;;;;;;0.80;0.80;;;-5.70;99.90;;;;;;5025969;28;20189;-82
2022/12/14 05:54:54;;;;;;;1.00;1.00;;;-5.80;99.90;;;;;;5022997;28;20486;-82
2022/12/14 05:57:19;;;;;;;0.63;0.63;;;-5.80;99.90;;;;;;5024963;28;20688;-82
2022/12/14 05:59:46;;;;;;;0.80;0.80;;;-5.80;99.90;;;;;;5032039;28;20559;-83
2022/12/14 06:02:12;;;;;;;0.90;0.90;;;-5.80;99.90;;;;;;5027190;28;20176;-82
2022/12/14 06:04:37;;;;;;;1.10;1.10;;;-5.80;99.90;;;;;;5026163;28;20448;-82
2022/12/14 06:07:07;;;;;;;0.90;0.90;;;-5.90;99.90;;;;;;5040602;28;20184;-82
2022/12/14 06:09:33;;;;;;;0.80;0.80;;;-5.80;99.90;;;;;;5025663;28;20222;-82
2022/12/14 06:11:58;;;;;;;0.70;0.70;;;-5.80;99.90;;;;;;5022507;28;20525;-81
2022/12/14 06:14:24;;;;;;;0.80;0.80;;;-5.90;99.90;;;;;;5024757;28;20204;-81
2022/12/14 06:16:49;;;;;;;0.90;0.90;;;-5.90;99.90;;;;;;5030079;28;20187;-82
2022/12/14 06:19:15;;;;;;;0.90;0.90;;;-5.90;99.90;;;;;;5031128;28;20235;-81
2022/12/14 06:21:42;;;;;;;0.80;0.80;;;-5.90;99.90;;;;;;5026722;28;20192;-81
2022/12/14 06:24:11;;;;;;;1.00;1.00;;;-5.90;99.90;;;;;;5027168;28;20560;-82
2022/12/14 06:26:40;;;;;;;0.80;0.80;;;-5.90;99.90;;;;;;5031999;28;20429;-80
2022/12/14 06:29:10;;;;;;;0.90;0.90;;;-5.80;99.90;;;;;;5024953;28;20797;-82
2022/12/14 06:31:37;;;;;;;0.73;0.73;;;-5.90;99.90;;;;;;5023377;28;20450;-82
2022/12/14 06:34:02;;;;;;;1.00;1.00;;;-5.90;99.90;;;;;;5025602;28;20458;-85
2022/12/14 06:36:33;;;;;;;0.90;0.90;;;-5.90;99.90;;;;;;5023393;28;20676;-84
2022/12/14 06:39:07;;;;;;;0.80;0.80;;;-5.90;99.90;;;;;;5018462;28;20366;-84
2022/12/14 06:41:33;;;;;;;1.20;1.20;;;-5.90;99.90;;;;;;5016248;28;20460;-84
2022/12/14 06:44:07;;;;;;;0.70;0.70;;;-5.90;99.90;;;;;;5024066;28;20472;-84
2022/12/14 06:46:33;;;;;;;0.90;0.90;;;-5.90;99.90;;;;;;5014683;28;20277;-87
2022/12/14 06:48:59;;;;;;;0.80;0.80;;;-5.90;99.90;;;;;;5012042;28;20442;-86
2022/12/14 06:51:24;;;;;;;0.97;0.97;;;-5.90;99.90;;;;;;5018698;28;20448;-87
2022/12/14 06:53:55;;;;;;;1.00;1.00;;;-5.80;99.90;;;;;;5025099;28;20318;-82
2022/12/14 06:56:22;;;;;;;0.73;0.73;;;-5.80;99.90;;;;;;5020750;28;20231;-82
2022/12/14 06:58:48;;;;;;;1.00;1.00;;;-5.90;99.90;;;;;;5029808;28;20962;-83
2022/12/14 07:01:19;;;;;;;0.90;0.90;;;-5.90;99.90;;;;;;5025523;28;20470;-83
2022/12/14 07:03:50;;;;;;;0.90;0.90;;;-5.90;99.90;;;;;;5028038;28;20263;-83
2022/12/14 07:06:15;;;;;;;1.00;1.00;;;-6.00;99.90;;;;;;5025325;28;20445;-83
2022/12/14 07:08:41;;;;;;;1.13;1.13;;;-6.00;99.90;;;;;;5027841;28;20431;-82
2022/12/14 07:11:10;;;;;;;0.73;0.73;;;-6.00;99.90;;;;;;5024817;28;20528;-83
2022/12/14 07:13:36;;;;;;;0.80;0.80;;;-6.00;99.90;;;;;;5021012;28;20549;-83
2022/12/14 07:16:03;;;;;;;0.83;0.83;;;-6.10;99.90;;;;;;5027576;28;20532;-83
2022/12/14 07:18:29;;;;;;;0.80;0.80;;;-6.00;99.90;;;;;;5026249;28;20448;-82
2022/12/14 07:21:03;;;;;;;0.70;0.70;;;-6.00;99.90;;;;;;5028383;28;20928;-83
2022/12/14 07:23:30;;;;;;;1.00;1.00;;;-6.00;99.90;;;;;;5026013;28;20187;-83
2022/12/14 07:26:07;;;;;;;1.00;1.00;;;-6.00;99.90;;;;;;5022795;28;20445;-82
2022/12/14 07:28:35;;;;;;;1.23;1.23;;;-5.80;99.90;;;;;;5018488;28;20454;-82
2022/12/14 07:31:03;;;;;;;1.30;1.30;;;-5.80;99.90;;;;;;5024661;28;21006;-83
2022/12/14 07:33:29;;;;;;;1.20;1.20;;;-5.90;99.90;;;;;;5027152;28;20454;-82
2022/12/14 07:36:05;;;;;;;1.10;1.10;;;-5.90;99.90;;;;;;5027633;28;21163;-82
2022/12/14 07:38:32;;;;;;;0.93;0.93;;;-6.00;99.90;;;;;;5019040;28;20234;-82
2022/12/14 07:41:09;;;;;;;1.00;1.00;;;-6.10;99.90;;;;;;5025361;28;20473;-82
2022/12/14 07:43:35;;;;;;;1.07;1.07;;;-6.10;99.90;;;;;;5024396;28;20468;-82
2022/12/14 07:46:03;;;;;;;1.10;1.10;;;-6.10;99.90;;;;;;5020565;28;20447;-81
2022/12/14 07:48:29;;;;;;;1.00;1.00;;;-6.00;99.90;;;;;;5028013;28;20489;-81
2022/12/14 07:51:01;;;;;;;1.00;1.00;;;-6.00;99.90;;;;;;5025998;28;20461;-81
2022/12/14 07:53:27;;;;;;;1.00;1.00;;;-6.00;99.90;;;;;;5025655;28;20481;-81
2022/12/14 07:55:53;;;;;;;1.10;1.10;;;-6.00;99.90;;;;;;5027757;28;20500;-81
2022/12/14 07:58:18;;;;;;;1.03;1.03;;;-6.00;99.90;;;;;;5014653;28;20228;-82
2022/12/14 08:00:44;;;;;;;1.07;1.07;;;-6.00;99.90;;;;;;5023933;28;20644;-82
2022/12/14 08:03:10;;;;;;;0.87;0.87;;;-6.00;99.90;;;;;;5023896;28;20234;-83
2022/12/14 08:05:38;;;;;;;0.83;0.83;;;-6.00;99.90;;;;;;5021913;28;20187;-82
2022/12/14 08:08:04;;;;;;;1.03;1.03;;;-6.00;99.90;;;;;;5023553;28;20868;-83
2022/12/14 08:10:29;;;;;;;0.80;0.80;;;-6.00;99.90;;;;;;5024406;28;20431;-82
2022/12/14 08:12:55;;;;;;;1.00;1.00;;;-5.90;99.90;;;;;;5025389;28;20187;-83
2022/12/14 08:15:20;;;;;;;1.00;1.00;;;-5.90;99.90;;;;;;5024637;28;20204;-82
2022/12/14 08:17:47;;;;;;;1.07;1.07;;;-5.90;99.90;;;;;;5025326;28;20215;-82
2022/12/14 08:20:12;;;;;;;0.90;0.90;;;-5.90;99.90;;;;;;5025235;28;20811;-82
2022/12/14 08:22:38;;;;;;;0.90;0.90;;;-5.90;99.90;;;;;;5028715;28;20438;-82
2022/12/14 08:25:03;;;;;;;1.20;1.20;;;-5.80;99.90;;;;;;5018145;28;20196;-82
2022/12/14 08:27:30;;;;;;;0.87;0.87;;;-5.80;99.90;;;;;;5024499;28;20214;-82
2022/12/14 08:29:55;;;;;;;0.83;0.83;;;-5.70;99.90;;;;;;5027823;28;20290;-81
2022/12/14 08:32:20;;;;;;;1.20;1.20;;;-5.70;99.90;;;;;;5026590;28;20585;-81
2022/12/14 08:34:46;;;;;;;1.03;1.03;;;-5.60;99.90;;;;;;5017252;28;20188;-81
2022/12/14 08:37:11;;;;;;;0.90;0.90;;;-5.60;99.90;;;;;;5023008;28;20285;-81
2022/12/14 08:39:37;;;;;;;0.73;0.73;;;-5.40;99.90;;;;;;5027692;28;20196;-81
2022/12/14 08:42:02;;;;;;;0.80;0.80;;;-5.30;99.90;;;;;;5026542;28;20910;-82
2022/12/14 08:44:28;;;;;;;0.80;0.80;;;-5.20;99.90;;;;;;5030109;28;20192;-81
2022/12/14 08:46:53;;;;;;;0.90;0.90;;;-5.20;99.90;;;;;;5027952;28;20530;-82
2022/12/14 08:49:19;;;;;;;0.90;0.90;;;-5.00;99.90;;;;;;5028321;28;20268;-81
2022/12/14 08:51:44;;;;;;;0.70;0.70;;;-5.00;99.90;;;;;;5027633;28;20691;-81
2022/12/14 08:54:10;;;;;;;0.93;0.93;;;-4.80;99.90;;;;;;5030478;28;20250;-81
2022/12/14 08:56:36;;;;;;;0.93;0.93;;;-4.70;99.90;;;;;;5026332;28;20201;-82
2022/12/14 08:59:01;;;;;;;0.90;0.90;;;-4.70;99.90;;;;;;5028812;28;20227;-81
2022/12/14 09:01:28;;;;;;;0.87;0.87;;;-4.70;99.90;;;;;;5025854;28;20446;-81
2022/12/14 09:03:54;;;;;;;0.80;0.80;;;-4.60;99.90;;;;;;5026668;28;20193;-81
2022/12/14 09:06:23;;;;;;;0.83;0.83;;;-4.50;99.90;;;;;;5029902;28;20549;-81
2022/12/14 09:08:49;;;;;;;0.97;0.97;;;-4.50;99.90;;;;;;5032641;28;20666;-81
2022/12/14 09:11:16;;;;;;;0.77;0.77;;;-4.30;99.90;;;;;;5031860;28;20453;-81
2022/12/14 09:13:42;;;;;;;0.70;0.70;;;-4.30;99.90;;;;;;5030947;28;20552;-81
2022/12/14 09:16:13;;;;;;;0.90;0.90;;;-4.30;99.90;;;;;;5023326;28;20525;-80
2022/12/14 09:18:38;;;;;;;0.77;0.77;;;-4.10;99.90;;;;;;5013691;28;20581;-80
2022/12/14 09:21:04;;;;;;;0.70;0.70;;;-4.10;99.90;;;;;;5030427;28;20525;-80
2022/12/14 09:23:31;;;;;;;0.77;0.77;;;-4.00;99.90;;;;;;5028885;28;20294;-80
2022/12/14 09:26:10;;;;;;;0.83;0.83;;;-3.90;99.90;;;;;;5012511;28;20188;-80
2022/12/14 09:28:37;;;;;;;0.60;0.60;;;-3.60;99.90;;;;;;5021858;28;20465;-80
2022/12/14 09:31:12;;;;;;;0.97;0.97;;;-3.50;99.90;;;;;;5030588;28;20465;-80
2022/12/14 09:33:38;;;;;;;0.60;0.60;;;-3.40;99.90;;;;;;5031058;28;20422;-80
2022/12/14 09:36:06;;;;;;;0.70;0.70;;;-3.10;99.90;;;;;;5031238;28;20422;-80
2022/12/14 09:38:34;;;;;;;0.90;0.90;;;-3.10;99.90;;;;;;5030642;28;20528;-81
2022/12/14 09:41:02;;;;;;;0.80;0.80;;;-2.90;99.90;;;;;;5031573;28;20456;-80
2022/12/14 09:43:59;;;;;;;0.90;0.90;;;-2.50;99.90;;;;;;5029850;28;20450;-80
2022/12/14 09:46:27;;;;;;;0.90;0.90;;;-2.40;99.90;;;;;;5023867;28;20452;-81
2022/12/14 09:48:54;;;;;;;0.70;0.70;;;-2.30;99.90;;;;;;5024762;28;20454;-81
2022/12/14 09:51:22;;;;;;;0.83;0.83;;;-1.80;99.90;;;;;;5016774;28;21011;-81
2022/12/14 09:53:51;;;;;;;0.77;0.77;;;-1.50;99.90;;;;;;5025955;28;20446;-81
2022/12/14 09:56:19;;;;;;;0.80;0.80;;;-1.10;99.90;;;;;;5026276;28;20450;-81
2022/12/14 09:58:56;;;;;;;0.90;0.90;;;-1.70;99.90;;;;;;5029333;28;20572;-81
2022/12/14 10:01:21;;;;;;;0.83;0.83;;;-2.30;99.90;;;;;;5022184;28;20469;-81
2022/12/14 10:04:24;;;;;;;0.90;0.90;;;-2.40;99.90;;;;;;5022270;28;20489;-81
2022/12/14 10:07:00;;;;;;;0.70;0.70;;;-2.60;99.90;;;;;;5017975;28;20188;-81
2022/12/14 10:09:45;;;;;;;0.50;0.50;;;-2.40;99.90;;;;;;5025466;28;20480;-80
2022/12/14 10:12:16;;;;;;;0.60;0.60;;;-2.20;99.90;;;;;;5018222;28;20950;-81
2022/12/14 10:14:50;;;;;;;0.60;0.60;;;-2.10;99.90;;;;;;5023841;28;20449;-81
2022/12/14 10:17:37;;;;;;;0.60;0.60;;;-2.20;99.90;;;;;;5023698;28;20446;-81
2022/12/14 10:20:10;;;;;;;0.90;0.90;;;-2.00;99.90;;;;;;5027409;28;20457;-81
2022/12/14 10:22:41;;;;;;;0.70;0.70;;;-1.80;99.90;;;;;;5031622;28;20493;-81
2022/12/14 10:25:13;;;;;;;0.70;0.70;;;-1.70;99.90;;;;;;5025461;28;20507;-80
2022/12/14 10:27:40;;;;;;;0.67;0.67;;;-1.60;99.90;;;;;;5025514;28;20434;-80
2022/12/14 10:30:38;;;;;;;0.70;0.70;;;-0.90;99.90;;;;;;5025320;28;21115;-80
2022/12/14 10:33:13;;;;;;;0.70;0.70;;;1.00;99.90;;;;;;5018817;28;20961;-80
2022/12/14 10:36:06;;;;;;;0.70;0.70;;;1.80;99.90;;;;;;5023737;28;20476;-80
2022/12/14 10:38:49;;;;;;;0.60;0.60;;;2.10;99.90;;;;;;5011750;28;20525;-81
2022/12/14 10:41:42;;;;;;;0.60;0.60;;;1.90;99.90;;;;;;5010536;28;21452;-79
2022/12/14 10:44:26;;;;;;;0.50;0.50;;;2.20;99.90;;;;;;5008327;28;20496;-79
2022/12/14 10:47:10;;;;;;;0.50;0.50;;;1.40;99.90;;;;;;5012061;28;20488;-79
2022/12/14 10:49:47;;;;;;;0.50;0.50;;;0.40;99.90;;;;;;5027319;28;20442;-80
2022/12/14 10:52:18;;;;;;;0.50;0.50;;;0.30;99.90;;;;;;5028609;28;20442;-79
2022/12/14 10:54:48;;;;;;;0.50;0.50;;;0.10;99.90;;;;;;5023317;28;21005;-79
2022/12/14 10:57:20;;;;;;;0.50;0.50;;;0.20;99.90;;;;;;5025932;28;20450;-79
2022/12/14 10:59:46;;;;;;;0.43;0.43;;;0.20;99.90;;;;;;5027630;28;20458;-79
2022/12/14 11:02:18;;;;;;;0.50;0.50;;;0.40;99.90;;;;;;5027707;28;20436;-80
2022/12/14 11:05:08;;;;;;;0.50;0.50;;;0.30;99.90;;;;;;5014913;28;20611;-79
2022/12/14 11:07:33;;;;;;;0.50;0.50;;;0.20;99.90;;;;;;5012640;28;20687;-80
2022/12/14 11:10:18;;;;;;;0.50;0.50;;;0.40;99.90;;;;;;5014435;28;21281;-80
2022/12/14 11:13:17;;;;;;;0.50;0.50;;;0.50;99.90;;;;;;5027419;28;20781;-79
2022/12/14 11:15:48;;;;;;;0.40;0.40;;;0.30;99.90;;;;;;5019689;28;20493;-80
2022/12/14 11:18:14;;;;;;;0.50;0.50;;;0.50;99.90;;;;;;5027969;28;20474;-80
2022/12/14 11:20:55;;;;;;;0.40;0.40;;;0.60;99.90;;;;;;5021278;28;20461;-79
2022/12/14 11:23:25;;;;;;;0.50;0.50;;;0.90;99.90;;;;;;5025735;28;20219;-79
2022/12/14 11:25:54;;;;;;;0.50;0.50;;;1.00;99.90;;;;;;5039813;28;20470;-80
2022/12/14 11:28:28;;;;;;;0.40;0.40;;;1.40;99.90;;;;;;5022592;28;20438;-80
2022/12/14 11:30:56;;;;;;;0.40;0.40;;;1.30;99.90;;;;;;5022501;28;20444;-80
2022/12/14 11:33:24;;;;;;;0.50;0.50;;;1.60;99.90;;;;;;5026971;28;20434;-80
2022/12/14 11:35:51;;;;;;;0.40;0.40;;;1.80;99.90;;;;;;5026597;28;20527;-80
2022/12/14 11:38:17;;;;;;;0.37;0.37;;;2.00;99.90;;;;;;5027212;28;21084;-81
2022/12/14 11:40:43;;;;;;;0.40;0.40;;;2.40;99.90;;;;;;5021177;28;20495;-81
2022/12/14 11:43:31;;;;;;;0.40;0.40;;;2.60;99.90;;;;;;5025227;28;20481;-80
2022/12/14 11:45:57;;;;;;;0.40;0.40;;;3.10;99.90;;;;;;5025271;28;20526;-80
2022/12/14 11:48:26;;;;;;;0.30;0.30;;;3.80;99.90;;;;;;5033845;28;20495;-80
2022/12/14 11:50:53;;;;;;;0.30;0.30;;;4.10;99.90;;;;;;5023533;28;20433;-80
2022/12/14 11:53:21;;;;;;;0.40;0.40;;;4.80;99.90;;;;;;5015255;28;20500;-82
2022/12/14 11:55:57;;;;;;;0.30;0.30;;;5.60;99.90;;;;;;5018885;28;20531;-82
2022/12/14 11:58:27;;;;;;;0.30;0.30;;;6.30;99.90;;;;;;5029693;28;20535;-80
2022/12/14 12:01:04;;;;;;;0.30;0.30;;;6.50;99.90;;;;;;5026078;28;20489;-80
2022/12/14 12:03:38;;;;;;;0.20;0.20;;;6.00;99.90;;;;;;5028568;28;20441;-79
2022/12/14 12:06:07;;;;;;;0.30;0.30;;;5.50;99.90;;;;;;5018196;28;20966;-80
2022/12/14 12:08:36;;;;;;;0.30;0.30;;;6.20;99.90;;;;;;5040245;28;20838;-79
2022/12/14 12:11:12;;;;;;;0.20;0.20;;;6.80;98.40;;;;;;5026742;28;20524;-80
2022/12/14 12:13:40;;;;;;;0.30;0.30;;;6.80;98.90;;;;;;5010682;28;20446;-78
2022/12/14 12:16:09;;;;;;;0.30;0.30;;;6.20;97.90;;;;;;5023553;28;21017;-80
2022/12/14 12:18:44;;;;;;;0.30;0.30;;;5.90;98.70;;;;;;5022989;28;20481;-80
2022/12/14 12:21:12;;;;;;;0.30;0.30;;;6.30;98.10;;;;;;5033245;28;20499;-81
2022/12/14 12:24:03;;;;;;;0.30;0.30;;;5.80;99.90;;;;;;5033482;28;20973;-81
2022/12/14 12:26:57;;;;;;;0.20;0.20;;;6.30;97.40;;;;;;5021053;28;21236;-81
2022/12/14 12:29:41;;;;;;;0.30;0.30;;;6.60;96.30;;;;;;5040020;28;20453;-82
2022/12/14 12:32:31;;;;;;;0.20;0.20;;;6.50;96.00;;;;;;5025607;28;20446;-82
2022/12/14 12:35:34;;;;;;;0.20;0.20;;;6.50;97.70;;;;;;5023225;28;20452;-81
2022/12/14 12:38:11;;;;;;;0.20;0.20;;;6.70;96.00;;;;;;5032186;28;20485;-82
2022/12/14 12:40:50;;;;;;;0.20;0.20;;;6.70;95.70;;;;;;5012186;28;20830;-82
2022/12/14 12:43:30;;;;;;;0.20;0.20;;;6.30;95.70;;;;;;5017000;28;20451;-82
2022/12/14 12:46:00;;;;;;;0.20;0.20;;;6.70;95.20;;;;;;5016326;28;20811;-81
2022/12/14 12:48:48;;;;;;;0.20;0.20;;;6.50;94.60;;;;;;5028031;28;20445;-82
2022/12/14 12:51:21;;;;;;;0.20;0.20;;;6.90;95.20;;;;;;5025905;28;21021;-81
2022/12/14 12:53:51;;;;;;;0.20;0.20;;;6.90;94.00;;;;;;5028859;28;20481;-82
2022/12/14 12:56:25;;;;;;;0.23;0.23;;;7.40;94.10;;;;;;5025057;28;20451;-82
2022/12/14 12:58:52;;;;;;;0.20;0.20;;;7.50;92.90;;;;;;5031142;28;21068;-82
2022/12/14 13:01:28;;;;;;;0.20;0.20;;;7.70;92.80;;;;;;5025503;28;20962;-81
2022/12/14 13:03:57;;;;;;;0.20;0.20;;;7.70;92.20;;;;;;5027162;28;20452;-82
2022/12/14 13:06:39;;;;;;;0.20;0.20;;;6.40;91.80;;;;;;5020569;28;20999;-82
2022/12/14 13:09:33;;;;;;;0.23;0.23;;;7.10;93.40;;;;;;5040570;28;20474;-83
2022/12/14 13:12:01;;;;;;;0.20;0.20;;;6.30;92.00;;;;;;5023221;28;21207;-83
2022/12/14 13:14:44;;;;;;;0.20;0.20;;;6.10;93.80;;;;;;5032615;28;20441;-83
2022/12/14 13:17:46;;;;;;;0.30;0.30;;;5.70;94.70;;;;;;5020090;28;21002;-82
2022/12/14 13:20:19;;;;;;;0.20;0.20;;;5.10;95.20;;;;;;5017541;28;20991;-83
2022/12/14 13:22:46;;;;;;;0.20;0.20;;;4.90;96.00;;;;;;5022882;28;20435;-82
2022/12/14 13:25:18;;;;;;;0.10;0.10;;;5.70;95.00;;;;;;5022695;28;20980;-84
2022/12/14 13:28:07;;;;;;;0.20;0.20;;;6.20;95.10;;;;;;5012515;28;20449;-82